sensor_id;sensor_type;location;lat;lon;timestamp;pressure;altitude;pressure_sealevel;temperature
71897;BMP280;59767;51.344;12.362;2023-03-01T00:01:40;158578.59;;;-0.12
71897;BMP280;59767;51.344;12.362;2023-03-01T00:04:44;158575.97;;;-0.13
71897;BMP280;59767;51.344;12.362;2023-03-01T00:07:52;158592.88;;;-0.06
71897;BMP280;59767;51.344;12.362;2023-03-01T00:11:17;158594.19;;;-0.06
71897;BMP280;59767;51.344;12.362;2023-03-01T00:14:23;158604.56;;;-0.02
71897;BMP280;59767;51.344;12.362;2023-03-01T00:17:27;158608.53;;;0.00
71897;BMP280;59767;51.344;12.362;2023-03-01T00:20:32;158599.41;;;-0.04
71897;BMP280;59767;51.344;12.362;2023-03-01T00:23:37;158587.72;;;-0.08
71897;BMP280;59767;51.344;12.362;2023-03-01T00:26:42;158594.19;;;-0.06
71897;BMP280;59767;51.344;12.362;2023-03-01T00:29:46;158592.88;;;-0.06
71897;BMP280;59767;51.344;12.362;2023-03-01T00:32:50;158602.00;;;-0.03
71897;BMP280;59767;51.344;12.362;2023-03-01T00:35:58;158575.97;;;-0.13
71897;BMP280;59767;51.344;12.362;2023-03-01T00:39:04;158579.84;;;-0.11
71897;BMP280;59767;51.344;12.362;2023-03-01T00:42:09;158578.59;;;-0.12
71897;BMP280;59767;51.344;12.362;2023-03-01T00:45:13;158578.59;;;-0.12
71897;BMP280;59767;51.344;12.362;2023-03-01T00:48:17;158566.88;;;-0.16
71897;BMP280;59767;51.344;12.362;2023-03-01T00:51:25;158583.75;;;-0.10
71897;BMP280;59767;51.344;12.362;2023-03-01T00:54:30;158565.56;;;-0.17
71897;BMP280;59767;51.344;12.362;2023-03-01T00:57:34;158561.69;;;-0.18
71897;BMP280;59767;51.344;12.362;2023-03-01T01:00:38;158544.75;;;-0.25
71897;BMP280;59767;51.344;12.362;2023-03-01T01:04:05;158529.16;;;-0.31
71897;BMP280;59767;51.344;12.362;2023-03-01T01:07:08;158522.59;;;-0.33
71897;BMP280;59767;51.344;12.362;2023-03-01T01:10:12;158492.69;;;-0.45
71897;BMP280;59767;51.344;12.362;2023-03-01T01:13:20;158490.06;;;-0.46
71897;BMP280;59767;51.344;12.362;2023-03-01T01:16:27;158480.97;;;-0.49
71897;BMP280;59767;51.344;12.362;2023-03-01T01:19:33;158479.69;;;-0.50
71897;BMP280;59767;51.344;12.362;2023-03-01T01:22:36;158482.28;;;-0.49
71897;BMP280;59767;51.344;12.362;2023-03-01T01:25:40;158478.38;;;-0.50
71897;BMP280;59767;51.344;12.362;2023-03-01T01:28:45;158466.69;;;-0.55
71897;BMP280;59767;51.344;12.362;2023-03-01T01:31:49;158452.34;;;-0.60
71897;BMP280;59767;51.344;12.362;2023-03-01T01:34:53;158453.66;;;-0.60
71897;BMP280;59767;51.344;12.362;2023-03-01T01:37:57;158443.28;;;-0.64
71897;BMP280;59767;51.344;12.362;2023-03-01T01:41:01;158447.19;;;-0.62
71897;BMP280;59767;51.344;12.362;2023-03-01T01:44:23;158444.56;;;-0.63
71897;BMP280;59767;51.344;12.362;2023-03-01T01:47:28;158438.06;;;-0.66
71897;BMP280;59767;51.344;12.362;2023-03-01T01:50:35;158438.06;;;-0.66
71897;BMP280;59767;51.344;12.362;2023-03-01T01:53:43;158445.88;;;-0.63
71897;BMP280;59767;51.344;12.362;2023-03-01T01:56:52;158449.78;;;-0.61
71897;BMP280;59767;51.344;12.362;2023-03-01T02:00:00;158443.28;;;-0.64
71897;BMP280;59767;51.344;12.362;2023-03-01T02:03:10;158422.47;;;-0.72
71897;BMP280;59767;51.344;12.362;2023-03-01T02:06:21;158425.06;;;-0.71
71897;BMP280;59767;51.344;12.362;2023-03-01T02:09:26;158415.97;;;-0.74
71897;BMP280;59767;51.344;12.362;2023-03-01T02:12:31;158414.63;;;-0.75
71897;BMP280;59767;51.344;12.362;2023-03-01T02:15:37;158400.38;;;-0.80
71897;BMP280;59767;51.344;12.362;2023-03-01T02:18:42;158374.34;;;-0.90
71897;BMP280;59767;51.344;12.362;2023-03-01T02:22:00;158367.88;;;-0.93
71897;BMP280;59767;51.344;12.362;2023-03-01T02:28:24;158357.44;;;-0.97
71897;BMP280;59767;51.344;12.362;2023-03-01T02:31:29;158357.44;;;-0.97
71897;BMP280;59767;51.344;12.362;2023-03-01T02:34:45;158374.34;;;-0.90
71897;BMP280;59767;51.344;12.362;2023-03-01T02:37:49;158386.03;;;-0.86
71897;BMP280;59767;51.344;12.362;2023-03-01T02:40:54;158391.25;;;-0.84
71897;BMP280;59767;51.344;12.362;2023-03-01T02:44:01;158374.34;;;-0.90
71897;BMP280;59767;51.344;12.362;2023-03-01T02:47:05;158363.97;;;-0.94
71897;BMP280;59767;51.344;12.362;2023-03-01T02:50:22;158363.97;;;-0.94
71897;BMP280;59767;51.344;12.362;2023-03-01T02:53:55;158357.44;;;-0.97
71897;BMP280;59767;51.344;12.362;2023-03-01T02:57:03;158353.53;;;-0.98
71897;BMP280;59767;51.344;12.362;2023-03-01T03:00:11;158354.88;;;-0.98
71897;BMP280;59767;51.344;12.362;2023-03-01T03:03:22;158350.97;;;-0.99
71897;BMP280;59767;51.344;12.362;2023-03-01T03:06:27;158318.47;;;-1.12
71897;BMP280;59767;51.344;12.362;2023-03-01T03:09:32;158318.47;;;-1.12
71897;BMP280;59767;51.344;12.362;2023-03-01T03:12:37;158309.34;;;-1.15
71897;BMP280;59767;51.344;12.362;2023-03-01T03:15:42;158313.25;;;-1.14
71897;BMP280;59767;51.344;12.362;2023-03-01T03:18:48;158321.06;;;-1.11
71897;BMP280;59767;51.344;12.362;2023-03-01T03:21:52;158305.47;;;-1.17
71897;BMP280;59767;51.344;12.362;2023-03-01T03:24:56;158293.78;;;-1.21
71897;BMP280;59767;51.344;12.362;2023-03-01T03:28:00;158295.09;;;-1.21
71897;BMP280;59767;51.344;12.362;2023-03-01T03:31:06;158287.25;;;-1.24
71897;BMP280;59767;51.344;12.362;2023-03-01T03:34:10;158274.28;;;-1.29
71897;BMP280;59767;51.344;12.362;2023-03-01T03:37:21;158263.81;;;-1.33
71897;BMP280;59767;51.344;12.362;2023-03-01T03:40:47;158261.25;;;-1.34
71897;BMP280;59767;51.344;12.362;2023-03-01T03:43:51;158258.59;;;-1.35
71897;BMP280;59767;51.344;12.362;2023-03-01T03:46:55;158250.81;;;-1.38
71897;BMP280;59767;51.344;12.362;2023-03-01T03:49:59;158239.13;;;-1.43
71897;BMP280;59767;51.344;12.362;2023-03-01T03:53:06;158232.66;;;-1.45
71897;BMP280;59767;51.344;12.362;2023-03-01T03:56:11;158233.91;;;-1.45
71897;BMP280;59767;51.344;12.362;2023-03-01T03:59:16;158224.88;;;-1.48
71897;BMP280;59767;51.344;12.362;2023-03-01T04:02:20;158218.34;;;-1.51
71897;BMP280;59767;51.344;12.362;2023-03-01T04:05:31;158215.75;;;-1.52
71897;BMP280;59767;51.344;12.362;2023-03-01T04:08:35;158201.44;;;-1.57
71897;BMP280;59767;51.344;12.362;2023-03-01T04:11:39;158196.22;;;-1.59
71897;BMP280;59767;51.344;12.362;2023-03-01T04:14:43;158206.66;;;-1.55
71897;BMP280;59767;51.344;12.362;2023-03-01T04:17:48;158204.06;;;-1.56
71897;BMP280;59767;51.344;12.362;2023-03-01T04:20:52;158185.84;;;-1.63
71897;BMP280;59767;51.344;12.362;2023-03-01T04:23:59;158188.44;;;-1.62
71897;BMP280;59767;51.344;12.362;2023-03-01T04:27:03;158168.97;;;-1.70
71897;BMP280;59767;51.344;12.362;2023-03-01T04:30:08;158178.06;;;-1.66
71897;BMP280;59767;51.344;12.362;2023-03-01T04:33:12;158159.88;;;-1.73
71897;BMP280;59767;51.344;12.362;2023-03-01T04:36:18;158163.75;;;-1.72
71897;BMP280;59767;51.344;12.362;2023-03-01T04:39:23;158157.28;;;-1.74
71897;BMP280;59767;51.344;12.362;2023-03-01T04:42:27;158158.59;;;-1.74
71897;BMP280;59767;51.344;12.362;2023-03-01T04:45:32;158163.75;;;-1.72
71897;BMP280;59767;51.344;12.362;2023-03-01T04:48:39;158153.38;;;-1.76
71897;BMP280;59767;51.344;12.362;2023-03-01T04:51:43;158155.97;;;-1.75
71897;BMP280;59767;51.344;12.362;2023-03-01T04:54:47;158166.38;;;-1.71
71897;BMP280;59767;51.344;12.362;2023-03-01T04:57:52;158145.59;;;-1.79
71897;BMP280;59767;51.344;12.362;2023-03-01T05:00:57;158131.28;;;-1.84
71897;BMP280;59767;51.344;12.362;2023-03-01T05:04:01;158132.59;;;-1.84
71897;BMP280;59767;51.344;12.362;2023-03-01T05:07:07;158120.88;;;-1.88
71897;BMP280;59767;51.344;12.362;2023-03-01T05:10:10;158115.66;;;-1.90
71897;BMP280;59767;51.344;12.362;2023-03-01T05:13:16;158098.75;;;-1.97
71897;BMP280;59767;51.344;12.362;2023-03-01T05:16:24;158114.34;;;-1.91
71897;BMP280;59767;51.344;12.362;2023-03-01T05:19:29;158113.09;;;-1.91
71897;BMP280;59767;51.344;12.362;2023-03-01T05:22:35;158114.34;;;-1.91
71897;BMP280;59767;51.344;12.362;2023-03-01T05:25:39;158113.09;;;-1.91
71897;BMP280;59767;51.344;12.362;2023-03-01T05:28:44;158111.75;;;-1.92
71897;BMP280;59767;51.344;12.362;2023-03-01T05:31:48;158109.19;;;-1.93
71897;BMP280;59767;51.344;12.362;2023-03-01T05:34:52;158111.75;;;-1.92
71897;BMP280;59767;51.344;12.362;2023-03-01T05:37:59;158102.66;;;-1.95
71897;BMP280;59767;51.344;12.362;2023-03-01T05:41:03;158107.88;;;-1.93
71897;BMP280;59767;51.344;12.362;2023-03-01T05:44:07;158107.88;;;-1.93
71897;BMP280;59767;51.344;12.362;2023-03-01T05:47:11;158114.34;;;-1.91
71897;BMP280;59767;51.344;12.362;2023-03-01T05:50:24;158106.56;;;-1.94
71897;BMP280;59767;51.344;12.362;2023-03-01T05:53:29;158094.88;;;-1.98
71897;BMP280;59767;51.344;12.362;2023-03-01T05:56:34;158093.56;;;-1.99
71897;BMP280;59767;51.344;12.362;2023-03-01T05:59:38;158089.66;;;-2.00
71897;BMP280;59767;51.344;12.362;2023-03-01T06:02:42;158092.28;;;-1.99
71897;BMP280;59767;51.344;12.362;2023-03-01T06:05:46;158107.88;;;-1.93
71897;BMP280;59767;51.344;12.362;2023-03-01T06:08:51;158107.88;;;-1.93
71897;BMP280;59767;51.344;12.362;2023-03-01T06:11:55;158123.44;;;-1.87
71897;BMP280;59767;51.344;12.362;2023-03-01T06:15:00;158109.19;;;-1.93
71897;BMP280;59767;51.344;12.362;2023-03-01T06:18:04;158127.34;;;-1.86
71897;BMP280;59767;51.344;12.362;2023-03-01T06:21:08;158135.19;;;-1.83
71897;BMP280;59767;51.344;12.362;2023-03-01T06:24:12;158145.59;;;-1.79
71897;BMP280;59767;51.344;12.362;2023-03-01T06:27:16;158137.81;;;-1.82
71897;BMP280;59767;51.344;12.362;2023-03-01T06:30:23;158139.06;;;-1.81
71897;BMP280;59767;51.344;12.362;2023-03-01T06:33:27;158159.88;;;-1.73
71897;BMP280;59767;51.344;12.362;2023-03-01T06:36:31;158167.66;;;-1.70
71897;BMP280;59767;51.344;12.362;2023-03-01T06:39:36;158176.75;;;-1.67
71897;BMP280;59767;51.344;12.362;2023-03-01T06:42:42;158175.50;;;-1.67
71897;BMP280;59767;51.344;12.362;2023-03-01T06:45:47;158183.28;;;-1.64
71897;BMP280;59767;51.344;12.362;2023-03-01T06:48:51;158192.34;;;-1.61
71897;BMP280;59767;51.344;12.362;2023-03-01T06:51:57;158217.03;;;-1.51
71897;BMP280;59767;51.344;12.362;2023-03-01T06:55:01;158211.88;;;-1.53
71897;BMP280;59767;51.344;12.362;2023-03-01T06:58:05;158230.03;;;-1.46
71897;BMP280;59767;51.344;12.362;2023-03-01T07:01:09;158236.56;;;-1.44
71897;BMP280;59767;51.344;12.362;2023-03-01T07:04:14;158249.56;;;-1.38
71897;BMP280;59767;51.344;12.362;2023-03-01T07:07:18;158269.09;;;-1.31
71897;BMP280;59767;51.344;12.362;2023-03-01T07:10:23;158289.88;;;-1.23
71897;BMP280;59767;51.344;12.362;2023-03-01T07:13:27;158313.25;;;-1.14
71897;BMP280;59767;51.344;12.362;2023-03-01T07:16:31;158331.47;;;-1.07
71897;BMP280;59767;51.344;12.362;2023-03-01T07:19:36;158345.75;;;-1.01
71897;BMP280;59767;51.344;12.362;2023-03-01T07:22:41;158349.66;;;-1.00
71897;BMP280;59767;51.344;12.362;2023-03-01T07:25:52;158379.56;;;-0.88
71897;BMP280;59767;51.344;12.362;2023-03-01T07:28:59;158406.84;;;-0.78
71897;BMP280;59767;51.344;12.362;2023-03-01T07:32:04;158425.06;;;-0.71
71897;BMP280;59767;51.344;12.362;2023-03-01T07:35:09;158443.28;;;-0.64
71897;BMP280;59767;51.344;12.362;2023-03-01T07:38:13;158457.56;;;-0.58
71897;BMP280;59767;51.344;12.362;2023-03-01T07:41:20;158477.06;;;-0.51
71897;BMP280;59767;51.344;12.362;2023-03-01T07:44:24;158503.09;;;-0.41
71897;BMP280;59767;51.344;12.362;2023-03-01T07:47:28;158527.84;;;-0.31
71897;BMP280;59767;51.344;12.362;2023-03-01T07:50:32;158557.78;;;-0.20
71897;BMP280;59767;51.344;12.362;2023-03-01T07:53:37;158586.38;;;-0.09
71897;BMP280;59767;51.344;12.362;2023-03-01T07:56:41;158609.78;;;0.00
71897;BMP280;59767;51.344;12.362;2023-03-01T07:59:45;158639.72;;;0.12
71897;BMP280;59767;51.344;12.362;2023-03-01T08:02:49;158674.84;;;0.26
71897;BMP280;59767;51.344;12.362;2023-03-01T08:05:53;158702.16;;;0.36
71897;BMP280;59767;51.344;12.362;2023-03-01T08:08:57;158732.09;;;0.48
71897;BMP280;59767;51.344;12.362;2023-03-01T08:12:03;158799.75;;;0.74
71897;BMP280;59767;51.344;12.362;2023-03-01T08:15:08;158967.66;;;1.38
71897;BMP280;59767;51.344;12.362;2023-03-01T08:18:12;159166.94;;;2.15
71897;BMP280;59767;51.344;12.362;2023-03-01T08:21:17;159312.84;;;2.71
71897;BMP280;59767;51.344;12.362;2023-03-01T08:24:21;159368.84;;;2.93
71897;BMP280;59767;51.344;12.362;2023-03-01T08:27:26;159456.19;;;3.26
71897;BMP280;59767;51.344;12.362;2023-03-01T08:30:30;159448.38;;;3.23
71897;BMP280;59767;51.344;12.362;2023-03-01T08:33:34;159436.69;;;3.19
71897;BMP280;59767;51.344;12.362;2023-03-01T08:36:41;159375.41;;;2.95
71897;BMP280;59767;51.344;12.362;2023-03-01T08:39:46;159355.84;;;2.88
71897;BMP280;59767;51.344;12.362;2023-03-01T08:42:50;159372.75;;;2.94
71897;BMP280;59767;51.344;12.362;2023-03-01T08:45:54;159440.53;;;3.20
71897;BMP280;59767;51.344;12.362;2023-03-01T08:48:59;159457.50;;;3.27
71897;BMP280;59767;51.344;12.362;2023-03-01T08:52:03;159499.25;;;3.43
71897;BMP280;59767;51.344;12.362;2023-03-01T08:55:08;159526.56;;;3.53
71897;BMP280;59767;51.344;12.362;2023-03-01T08:58:12;159505.69;;;3.45
71897;BMP280;59767;51.344;12.362;2023-03-01T09:01:18;159542.22;;;3.60
71897;BMP280;59767;51.344;12.362;2023-03-01T09:04:22;159483.59;;;3.37
71897;BMP280;59767;51.344;12.362;2023-03-01T09:07:27;159483.59;;;3.37
71897;BMP280;59767;51.344;12.362;2023-03-01T09:10:37;159469.25;;;3.31
71897;BMP280;59767;51.344;12.362;2023-03-01T09:13:41;159553.94;;;3.64
71897;BMP280;59767;51.344;12.362;2023-03-01T09:16:47;159555.28;;;3.65
71897;BMP280;59767;51.344;12.362;2023-03-01T09:19:51;159546.13;;;3.61
71897;BMP280;59767;51.344;12.362;2023-03-01T09:22:55;159535.72;;;3.57
71897;BMP280;59767;51.344;12.362;2023-03-01T09:25:59;159547.47;;;3.62
71897;BMP280;59767;51.344;12.362;2023-03-01T09:29:04;159599.56;;;3.82
71897;BMP280;59767;51.344;12.362;2023-03-01T09:32:08;159595.66;;;3.80
71897;BMP280;59767;51.344;12.362;2023-03-01T09:35:13;159594.41;;;3.80
71897;BMP280;59767;51.344;12.362;2023-03-01T09:38:17;159540.94;;;3.59
71897;BMP280;59767;51.344;12.362;2023-03-01T09:47:52;159637.38;;;3.96
71897;BMP280;59767;51.344;12.362;2023-03-01T09:50:56;159705.22;;;4.22
71897;BMP280;59767;51.344;12.362;2023-03-01T09:54:05;159705.22;;;4.22
71897;BMP280;59767;51.344;12.362;2023-03-01T10:00:41;159657.00;;;4.04
71897;BMP280;59767;51.344;12.362;2023-03-01T10:07:59;159578.75;;;3.74
71897;BMP280;59767;51.344;12.362;2023-03-01T10:11:21;159581.34;;;3.75
71897;BMP280;59767;51.344;12.362;2023-03-01T10:14:43;159560.50;;;3.67
71897;BMP280;59767;51.344;12.362;2023-03-01T10:18:03;159537.03;;;3.58
71897;BMP280;59767;51.344;12.362;2023-03-01T10:21:17;159553.94;;;3.64
71897;BMP280;59767;51.344;12.362;2023-03-01T10:24:21;159553.94;;;3.64
71897;BMP280;59767;51.344;12.362;2023-03-01T10:27:53;159576.09;;;3.73
71897;BMP280;59767;51.344;12.362;2023-03-01T10:30:58;159555.28;;;3.65
71897;BMP280;59767;51.344;12.362;2023-03-01T10:34:12;159586.56;;;3.77
71897;BMP280;59767;51.344;12.362;2023-03-01T10:37:18;159607.44;;;3.85
71897;BMP280;59767;51.344;12.362;2023-03-01T10:40:24;159611.38;;;3.86
71897;BMP280;59767;51.344;12.362;2023-03-01T10:43:44;159672.63;;;4.10
71897;BMP280;59767;51.344;12.362;2023-03-01T10:46:59;159684.31;;;4.14
71897;BMP280;59767;51.344;12.362;2023-03-01T10:50:16;159681.75;;;4.13
71897;BMP280;59767;51.344;12.362;2023-03-01T10:53:34;159694.75;;;4.18
71897;BMP280;59767;51.344;12.362;2023-03-01T10:56:53;159720.88;;;4.28
71897;BMP280;59767;51.344;12.362;2023-03-01T11:00:15;159732.56;;;4.33
71897;BMP280;59767;51.344;12.362;2023-03-01T11:06:39;159775.66;;;4.49
71897;BMP280;59767;51.344;12.362;2023-03-01T11:09:43;159808.25;;;4.62
71897;BMP280;59767;51.344;12.362;2023-03-01T11:12:48;159829.09;;;4.70
71897;BMP280;59767;51.344;12.362;2023-03-01T11:16:05;159816.06;;;4.65
71897;BMP280;59767;51.344;12.362;2023-03-01T11:22:19;159886.50;;;4.92
71897;BMP280;59767;51.344;12.362;2023-03-01T11:25:27;159899.56;;;4.97
71897;BMP280;59767;51.344;12.362;2023-03-01T11:28:36;159902.16;;;4.98
71897;BMP280;59767;51.344;12.362;2023-03-01T11:31:42;159890.41;;;4.93
71897;BMP280;59767;51.344;12.362;2023-03-01T11:35:05;159857.81;;;4.81
71897;BMP280;59767;51.344;12.362;2023-03-01T11:38:22;159893.00;;;4.94
71897;BMP280;59767;51.344;12.362;2023-03-01T11:41:31;159917.78;;;5.04
71897;BMP280;59767;51.344;12.362;2023-03-01T11:44:36;159857.81;;;4.81
71897;BMP280;59767;51.344;12.362;2023-03-01T11:48:13;159830.41;;;4.70
71897;BMP280;59767;51.344;12.362;2023-03-01T12:09:22;159917.78;;;5.04
71897;BMP280;59767;51.344;12.362;2023-03-01T12:12:43;159902.16;;;4.98
71897;BMP280;59767;51.344;12.362;2023-03-01T12:16:29;159942.63;;;5.13
71897;BMP280;59767;51.344;12.362;2023-03-01T12:23:24;159912.63;;;5.02
71897;BMP280;59767;51.344;12.362;2023-03-01T12:26:37;159977.84;;;5.27
71897;BMP280;59767;51.344;12.362;2023-03-01T12:36:40;159977.84;;;5.27
71897;BMP280;59767;51.344;12.362;2023-03-01T12:44:01;160045.69;;;5.53
71897;BMP280;59767;51.344;12.362;2023-03-01T12:47:19;160046.97;;;5.53
71897;BMP280;59767;51.344;12.362;2023-03-01T12:50:27;160046.97;;;5.53
71897;BMP280;59767;51.344;12.362;2023-03-01T12:53:40;160041.78;;;5.51
71897;BMP280;59767;51.344;12.362;2023-03-01T12:56:46;160003.94;;;5.37
71897;BMP280;59767;51.344;12.362;2023-03-01T13:00:31;160023.50;;;5.44
71897;BMP280;59767;51.344;12.362;2023-03-01T13:04:06;160104.41;;;5.75
71897;BMP280;59767;51.344;12.362;2023-03-01T13:07:28;160144.91;;;5.91
71897;BMP280;59767;51.344;12.362;2023-03-01T13:10:46;160091.38;;;5.70
71897;BMP280;59767;51.344;12.362;2023-03-01T13:17:31;160116.19;;;5.80
71897;BMP280;59767;51.344;12.362;2023-03-01T13:23:47;160116.19;;;5.80
71897;BMP280;59767;51.344;12.362;2023-03-01T13:30:38;160117.47;;;5.81
71897;BMP280;59767;51.344;12.362;2023-03-01T13:33:56;160184.03;;;6.06
71897;BMP280;59767;51.344;12.362;2023-03-01T13:37:35;160198.38;;;6.12
71897;BMP280;59767;51.344;12.362;2023-03-01T13:40:57;160206.22;;;6.15
71897;BMP280;59767;51.344;12.362;2023-03-01T13:44:01;160194.47;;;6.10
71897;BMP280;59767;51.344;12.362;2023-03-01T13:47:17;160185.38;;;6.07
71897;BMP280;59767;51.344;12.362;2023-03-01T13:50:28;160216.66;;;6.19
71897;BMP280;59767;51.344;12.362;2023-03-01T13:53:36;160200.97;;;6.13
71897;BMP280;59767;51.344;12.362;2023-03-01T13:56:43;160178.78;;;6.04
71897;BMP280;59767;51.344;12.362;2023-03-01T13:59:47;160218.00;;;6.19
71897;BMP280;59767;51.344;12.362;2023-03-01T14:06:14;160214.06;;;6.18
71897;BMP280;59767;51.344;12.362;2023-03-01T14:09:26;160224.50;;;6.22
71897;BMP280;59767;51.344;12.362;2023-03-01T14:12:50;160236.25;;;6.26
71897;BMP280;59767;51.344;12.362;2023-03-01T14:16:29;160259.78;;;6.35
71897;BMP280;59767;51.344;12.362;2023-03-01T14:19:36;160267.56;;;6.38
71897;BMP280;59767;51.344;12.362;2023-03-01T14:22:41;160288.47;;;6.46
71897;BMP280;59767;51.344;12.362;2023-03-01T14:25:54;160293.72;;;6.48
71897;BMP280;59767;51.344;12.362;2023-03-01T14:28:59;160332.81;;;6.63
71897;BMP280;59767;51.344;12.362;2023-03-01T14:35:20;160327.63;;;6.61
71897;BMP280;59767;51.344;12.362;2023-03-01T14:38:45;160275.41;;;6.41
71897;BMP280;59767;51.344;12.362;2023-03-01T14:41:49;160254.53;;;6.33
71897;BMP280;59767;51.344;12.362;2023-03-01T14:44:55;160194.47;;;6.10
71897;BMP280;59767;51.344;12.362;2023-03-01T14:48:02;160215.38;;;6.18
71897;BMP280;59767;51.344;12.362;2023-03-01T14:51:06;160212.75;;;6.17
71897;BMP280;59767;51.344;12.362;2023-03-01T14:54:20;160194.47;;;6.10
71897;BMP280;59767;51.344;12.362;2023-03-01T14:57:29;160193.16;;;6.10
71897;BMP280;59767;51.344;12.362;2023-03-01T15:00:33;160185.38;;;6.07
71897;BMP280;59767;51.344;12.362;2023-03-01T15:03:42;160193.16;;;6.10
71897;BMP280;59767;51.344;12.362;2023-03-01T15:06:53;160173.59;;;6.02
71897;BMP280;59767;51.344;12.362;2023-03-01T15:09:58;160180.13;;;6.05
71897;BMP280;59767;51.344;12.362;2023-03-01T15:13:23;160173.59;;;6.02
71897;BMP280;59767;51.344;12.362;2023-03-01T15:16:32;160174.88;;;6.03
71897;BMP280;59767;51.344;12.362;2023-03-01T15:19:37;160148.81;;;5.93
71897;BMP280;59767;51.344;12.362;2023-03-01T15:22:43;160139.66;;;5.89
71897;BMP280;59767;51.344;12.362;2023-03-01T15:25:53;160156.66;;;5.96
71897;BMP280;59767;51.344;12.362;2023-03-01T15:29:01;160150.09;;;5.93
71897;BMP280;59767;51.344;12.362;2023-03-01T15:35:44;160135.75;;;5.88
71897;BMP280;59767;51.344;12.362;2023-03-01T15:38:56;160112.22;;;5.78
71897;BMP280;59767;51.344;12.362;2023-03-01T15:42:01;160087.41;;;5.69
71897;BMP280;59767;51.344;12.362;2023-03-01T15:48:24;160120.06;;;5.82
71897;BMP280;59767;51.344;12.362;2023-03-01T15:51:35;160127.91;;;5.85
71897;BMP280;59767;51.344;12.362;2023-03-01T15:54:39;160118.78;;;5.81
71897;BMP280;59767;51.344;12.362;2023-03-01T15:57:44;160135.75;;;5.88
71897;BMP280;59767;51.344;12.362;2023-03-01T16:00:49;160114.88;;;5.80
71897;BMP280;59767;51.344;12.362;2023-03-01T16:04:05;160097.88;;;5.73
71897;BMP280;59767;51.344;12.362;2023-03-01T16:07:09;160087.41;;;5.69
71897;BMP280;59767;51.344;12.362;2023-03-01T16:10:14;160066.59;;;5.61
71897;BMP280;59767;51.344;12.362;2023-03-01T16:13:18;160069.19;;;5.62
71897;BMP280;59767;51.344;12.362;2023-03-01T16:16:22;160027.44;;;5.46
71897;BMP280;59767;51.344;12.362;2023-03-01T16:19:27;160014.34;;;5.41
71897;BMP280;59767;51.344;12.362;2023-03-01T16:22:31;160019.59;;;5.43
71897;BMP280;59767;51.344;12.362;2023-03-01T16:25:35;159985.66;;;5.30
71897;BMP280;59767;51.344;12.362;2023-03-01T16:28:41;159988.25;;;5.31
71897;BMP280;59767;51.344;12.362;2023-03-01T16:31:45;159985.66;;;5.30
71897;BMP280;59767;51.344;12.362;2023-03-01T16:34:49;159958.31;;;5.19
71897;BMP280;59767;51.344;12.362;2023-03-01T16:37:53;159953.06;;;5.17
71897;BMP280;59767;51.344;12.362;2023-03-01T16:40:58;159925.66;;;5.07
71897;BMP280;59767;51.344;12.362;2023-03-01T16:44:02;159938.66;;;5.12
71897;BMP280;59767;51.344;12.362;2023-03-01T16:47:06;159907.41;;;5.00
71897;BMP280;59767;51.344;12.362;2023-03-01T16:50:10;159887.81;;;4.92
71897;BMP280;59767;51.344;12.362;2023-03-01T16:53:14;159863.06;;;4.83
71897;BMP280;59767;51.344;12.362;2023-03-01T16:56:19;159836.91;;;4.73
71897;BMP280;59767;51.344;12.362;2023-03-01T16:59:23;159822.63;;;4.67
71897;BMP280;59767;51.344;12.362;2023-03-01T17:02:29;159808.25;;;4.62
71897;BMP280;59767;51.344;12.362;2023-03-01T17:05:33;159826.50;;;4.69
71897;BMP280;59767;51.344;12.362;2023-03-01T17:08:37;159799.09;;;4.58
71897;BMP280;59767;51.344;12.362;2023-03-01T17:11:43;159777.00;;;4.50
71897;BMP280;59767;51.344;12.362;2023-03-01T17:14:47;159748.22;;;4.39
71897;BMP280;59767;51.344;12.362;2023-03-01T17:17:53;159730.03;;;4.32
71897;BMP280;59767;51.344;12.362;2023-03-01T17:20:58;159752.19;;;4.40
71897;BMP280;59767;51.344;12.362;2023-03-01T17:24:02;159752.19;;;4.40
71897;BMP280;59767;51.344;12.362;2023-03-01T17:27:07;159758.69;;;4.43
71897;BMP280;59767;51.344;12.362;2023-03-01T17:30:13;159727.44;;;4.31
71897;BMP280;59767;51.344;12.362;2023-03-01T17:33:18;159692.16;;;4.17
71897;BMP280;59767;51.344;12.362;2023-03-01T17:36:23;159673.91;;;4.10
71897;BMP280;59767;51.344;12.362;2023-03-01T17:39:27;159662.19;;;4.06
71897;BMP280;59767;51.344;12.362;2023-03-01T17:42:38;159643.94;;;3.99
71897;BMP280;59767;51.344;12.362;2023-03-01T17:45:43;159606.13;;;3.84
71897;BMP280;59767;51.344;12.362;2023-03-01T17:48:51;159615.28;;;3.88
71897;BMP280;59767;51.344;12.362;2023-03-01T17:51:55;159603.53;;;3.83
71897;BMP280;59767;51.344;12.362;2023-03-01T17:54:59;159591.75;;;3.79
71897;BMP280;59767;51.344;12.362;2023-03-01T17:58:05;159613.94;;;3.87
71897;BMP280;59767;51.344;12.362;2023-03-01T18:01:15;159613.94;;;3.87
71897;BMP280;59767;51.344;12.362;2023-03-01T18:04:19;159615.28;;;3.88
71897;BMP280;59767;51.344;12.362;2023-03-01T18:07:27;159594.41;;;3.80
71897;BMP280;59767;51.344;12.362;2023-03-01T18:10:32;159580.00;;;3.74
71897;BMP280;59767;51.344;12.362;2023-03-01T18:13:39;159552.69;;;3.64
71897;BMP280;59767;51.344;12.362;2023-03-01T18:16:43;159546.13;;;3.61
71897;BMP280;59767;51.344;12.362;2023-03-01T18:19:47;159552.69;;;3.64
71897;BMP280;59767;51.344;12.362;2023-03-01T18:22:51;159591.75;;;3.79
71897;BMP280;59767;51.344;12.362;2023-03-01T18:26:03;159553.94;;;3.64
71897;BMP280;59767;51.344;12.362;2023-03-01T18:29:07;159526.56;;;3.53
71897;BMP280;59767;51.344;12.362;2023-03-01T18:32:13;159509.63;;;3.47
71897;BMP280;59767;51.344;12.362;2023-03-01T18:35:18;159507.03;;;3.46
71897;BMP280;59767;51.344;12.362;2023-03-01T18:38:22;159495.34;;;3.41
71897;BMP280;59767;51.344;12.362;2023-03-01T18:41:27;159470.56;;;3.32
71897;BMP280;59767;51.344;12.362;2023-03-01T18:44:35;159465.31;;;3.30
71897;BMP280;59767;51.344;12.362;2023-03-01T18:47:39;159449.69;;;3.24
71897;BMP280;59767;51.344;12.362;2023-03-01T18:50:44;159439.22;;;3.20
71897;BMP280;59767;51.344;12.362;2023-03-01T18:53:48;159421.03;;;3.13
71897;BMP280;59767;51.344;12.362;2023-03-01T18:56:52;159422.31;;;3.13
71897;BMP280;59767;51.344;12.362;2023-03-01T18:59:57;159409.31;;;3.08